createdAt,value
2018-04-25T00:01:57.674Z,7.25
2018-04-25T00:04:24.181Z,7.28
2018-04-25T00:06:53.340Z,6.95
2018-04-25T00:09:21.241Z,6.50
2018-04-25T00:11:48.504Z,6.97
2018-04-25T00:14:14.919Z,8.98
2018-04-25T00:16:41.703Z,6.95
2018-04-25T00:19:08.138Z,7.35
2018-04-25T00:21:34.877Z,6.93
2018-04-25T00:24:01.311Z,6.95
2018-04-25T00:26:27.680Z,7.32
2018-04-25T00:28:54.053Z,7.22
2018-04-25T00:31:21.187Z,7.03
2018-04-25T00:33:49.095Z,6.80
2018-04-25T00:36:15.454Z,6.72
2018-04-25T00:38:41.837Z,7.10
2018-04-25T00:41:08.982Z,6.43
2018-04-25T00:43:36.142Z,6.45
2018-04-25T00:46:03.310Z,6.30
2018-04-25T00:48:29.778Z,6.60
2018-04-25T00:50:56.465Z,6.37
2018-04-25T00:53:23.208Z,6.32
2018-04-25T00:55:49.594Z,6.53
2018-04-25T00:58:16.035Z,6.12
2018-04-25T01:00:42.461Z,6.25
2018-04-25T01:03:08.865Z,6.40
2018-04-25T01:05:35.260Z,6.25
2018-04-25T01:08:02.487Z,6.85
2018-04-25T01:10:28.911Z,6.70
2018-04-25T01:12:55.345Z,6.20
2018-04-25T01:15:21.779Z,5.40
2018-04-25T01:17:48.279Z,5.07
2018-04-25T01:20:14.849Z,4.72
2018-04-25T01:22:41.624Z,4.80
2018-04-25T01:25:23.108Z,4.55
2018-04-25T01:27:56.910Z,4.60
2018-04-25T01:30:24.130Z,4.68
2018-04-25T01:32:50.769Z,4.55
2018-04-25T01:35:17.211Z,4.97
2018-04-25T01:37:52.657Z,4.50
2018-04-25T01:40:19.226Z,4.90
2018-04-25T01:46:02.349Z,4.60
2018-04-25T01:51:58.526Z,4.60
2018-04-25T01:54:43.793Z,4.55
2018-04-25T01:57:29.538Z,4.12
2018-04-25T02:00:14.368Z,4.35
2018-04-25T02:02:40.459Z,4.43
2018-04-25T02:05:07.605Z,4.60
2018-04-25T02:07:34.823Z,4.22
2018-04-25T02:10:01.197Z,4.90
2018-04-25T02:12:28.342Z,4.68
2018-04-25T02:14:55.521Z,4.53
2018-04-25T02:17:21.953Z,4.37
2018-04-25T02:19:48.671Z,5.03
2018-04-25T02:22:15.276Z,4.68
2018-04-25T02:24:41.689Z,4.30
2018-04-25T02:27:08.134Z,4.97
2018-04-25T02:29:34.478Z,4.85
2018-04-25T02:32:01.250Z,4.97
2018-04-25T02:34:27.772Z,4.47
2018-04-25T02:36:54.920Z,4.60
2018-04-25T02:39:22.143Z,4.55
2018-04-25T02:41:48.598Z,4.55
2018-04-25T02:44:15.747Z,5.12
2018-04-25T02:46:42.977Z,4.70
2018-04-25T02:49:09.466Z,4.65
2018-04-25T02:51:35.854Z,4.75
2018-04-25T02:54:02.246Z,4.30
2018-04-25T02:56:28.639Z,4.65
2018-04-25T02:58:55.867Z,4.40
2018-04-25T03:01:22.934Z,4.75
2018-04-25T03:03:50.307Z,5.10
2018-04-25T03:06:16.730Z,4.87
2018-04-25T03:08:43.931Z,5.12
2018-04-25T03:11:10.386Z,4.53
2018-04-25T03:13:36.769Z,4.93
2018-04-25T03:16:03.253Z,4.28
2018-04-25T03:18:29.680Z,5.30
2018-04-25T03:20:56.567Z,4.85
2018-04-25T03:23:23.798Z,4.93
2018-04-25T03:25:50.193Z,4.75
2018-04-25T03:28:16.666Z,5.20
2018-04-25T03:30:43.775Z,4.85
2018-04-25T03:33:10.156Z,4.85
2018-04-25T03:35:37.361Z,5.15
2018-04-25T03:38:03.834Z,4.50
2018-04-25T03:40:31.309Z,5.32
2018-04-25T03:42:57.784Z,5.15
2018-04-25T03:45:24.506Z,6.30
2018-04-25T03:47:50.874Z,6.03
2018-04-25T03:50:17.257Z,5.25
2018-04-25T03:52:43.641Z,6.00
2018-04-25T03:55:10.008Z,7.50
2018-04-25T03:57:36.502Z,4.90
2018-04-25T04:00:02.877Z,4.97
2018-04-25T04:02:29.280Z,5.05
2018-04-25T04:04:55.749Z,5.50
2018-04-25T04:07:22.161Z,4.85
2018-04-25T04:09:49.527Z,4.75
2018-04-25T04:12:16.853Z,5.57
2018-04-25T04:14:43.246Z,5.68
2018-04-25T04:17:09.822Z,5.30
2018-04-25T04:19:36.188Z,4.95
2018-04-25T04:22:03.416Z,5.00
2018-04-25T04:24:30.727Z,5.30
2018-04-25T04:26:57.160Z,5.25
2018-04-25T04:29:23.818Z,4.70
2018-04-25T04:31:50.231Z,5.00
2018-04-25T04:34:16.698Z,5.68
2018-04-25T04:36:43.350Z,5.53
2018-04-25T04:39:10.595Z,5.15
2018-04-25T04:41:38.080Z,4.85
2018-04-25T04:44:04.653Z,5.35
2018-04-25T04:46:31.137Z,5.18
2018-04-25T04:48:58.440Z,5.00
2018-04-25T04:51:25.246Z,5.43
2018-04-25T04:53:51.615Z,5.22
2018-04-25T04:56:18.010Z,4.72
2018-04-25T04:58:44.385Z,5.30
2018-04-25T05:01:10.765Z,4.90
2018-04-25T05:03:38.075Z,5.00
2018-04-25T05:06:04.851Z,5.47
2018-04-25T05:08:32.172Z,5.30
2018-04-25T05:10:59.414Z,7.37
2018-04-25T05:13:25.828Z,5.68
2018-04-25T05:15:52.277Z,5.22
2018-04-25T05:18:18.694Z,6.25
2018-04-25T05:20:45.119Z,6.03
2018-04-25T05:23:11.590Z,31.45
2018-04-25T05:25:37.993Z,31.02
2018-04-25T05:28:04.564Z,5.68
2018-04-25T05:30:31.030Z,6.12
2018-04-25T05:32:57.408Z,5.70
2018-04-25T05:35:23.833Z,7.75
2018-04-25T05:37:50.260Z,22.48
2018-04-25T05:40:16.661Z,5.70
2018-04-25T05:42:43.791Z,7.95
2018-04-25T05:45:11.268Z,8.15
2018-04-25T05:47:37.661Z,8.30
2018-04-25T05:50:04.043Z,4.72
2018-04-25T05:52:30.622Z,4.97
2018-04-25T05:54:57.051Z,5.93
2018-04-25T05:57:23.480Z,6.97
2018-04-25T05:59:50.933Z,7.25
2018-04-25T06:02:17.731Z,7.32
2018-04-25T06:04:44.286Z,4.72
2018-04-25T06:07:10.782Z,4.95
2018-04-25T06:09:38.418Z,8.38
2018-04-25T06:12:04.920Z,7.80
2018-04-25T06:14:31.447Z,5.82
2018-04-25T06:16:58.006Z,5.57
2018-04-25T06:19:24.712Z,4.75
2018-04-25T06:21:51.079Z,5.55
2018-04-25T06:24:17.550Z,4.97
2018-04-25T06:26:44.680Z,5.32
2018-04-25T06:29:11.272Z,4.57
2018-04-25T06:31:37.737Z,5.00
2018-04-25T06:34:04.157Z,5.47
2018-04-25T06:36:30.603Z,8.23
2018-04-25T06:38:57.009Z,7.57
2018-04-25T06:41:23.510Z,5.10
2018-04-25T06:43:51.014Z,7.80
2018-04-25T06:46:17.368Z,7.57
2018-04-25T06:48:43.734Z,5.07
2018-04-25T06:51:11.100Z,5.65
2018-04-25T06:53:38.056Z,5.75
2018-04-25T06:56:04.454Z,7.32
2018-04-25T06:58:31.678Z,9.67
2018-04-25T07:00:58.120Z,7.25
2018-04-25T07:03:24.512Z,6.33
2018-04-25T07:05:50.911Z,8.83
2018-04-25T07:08:18.049Z,5.93
2018-04-25T07:10:44.497Z,9.25
2018-04-25T07:13:11.715Z,7.90
2018-04-25T07:15:38.089Z,9.07
2018-04-25T07:18:05.453Z,6.83
2018-04-25T07:20:32.822Z,7.07
2018-04-25T07:22:59.292Z,4.87
2018-04-25T07:25:25.817Z,5.47
2018-04-25T07:27:52.538Z,8.17
2018-04-25T07:30:19.064Z,7.40
2018-04-25T07:32:45.520Z,4.20
2018-04-25T07:35:11.886Z,11.20
2018-04-25T07:37:38.545Z,5.10
2018-04-25T07:40:06.174Z,5.07
2018-04-25T07:42:32.759Z,4.03
2018-04-25T07:44:59.121Z,6.03
2018-04-25T07:47:25.601Z,3.93
2018-04-25T07:49:53.386Z,6.33
2018-04-25T07:52:19.822Z,6.43
2018-04-25T07:54:46.572Z,4.10
2018-04-25T07:57:23.123Z,4.90
2018-04-25T07:59:50.319Z,5.13
2018-04-25T08:02:16.683Z,8.43
2018-04-25T08:04:43.189Z,5.27
2018-04-25T08:07:09.850Z,4.53
2018-04-25T08:09:36.425Z,4.50
2018-04-25T08:12:09.355Z,4.30
2018-04-25T08:14:54.301Z,6.07
2018-04-25T08:17:39.107Z,5.50
2018-04-25T08:20:23.863Z,5.30
2018-04-25T08:22:50.223Z,5.77
2018-04-25T08:25:17.456Z,6.00
2018-04-25T08:27:44.574Z,6.73
2018-04-25T08:30:10.986Z,6.73
2018-04-25T08:32:37.397Z,5.50
2018-04-25T08:35:03.777Z,5.40
2018-04-25T08:37:30.170Z,6.20
2018-04-25T08:39:56.526Z,7.77
2018-04-25T08:42:22.925Z,7.13
2018-04-25T08:44:49.412Z,4.90
2018-04-25T08:47:15.760Z,4.40
2018-04-25T08:49:42.198Z,4.30
2018-04-25T08:52:10.602Z,4.37
2018-04-25T08:54:37.032Z,5.20
2018-04-25T08:57:03.417Z,4.37
2018-04-25T08:59:29.873Z,4.47
2018-04-25T09:01:57.057Z,4.10
2018-04-25T09:04:23.781Z,4.30
2018-04-25T09:06:50.203Z,4.50
2018-04-25T09:09:17.338Z,4.73
2018-04-25T09:11:43.753Z,4.57
2018-04-25T09:14:10.100Z,4.93
2018-04-25T09:16:36.520Z,5.33
2018-04-25T09:19:02.955Z,4.03
2018-04-25T09:21:30.837Z,4.13
2018-04-25T09:23:57.256Z,3.80
2018-04-25T09:26:23.615Z,4.27
2018-04-25T09:28:50.847Z,4.23
2018-04-25T09:31:17.512Z,4.40
2018-04-25T09:33:43.911Z,4.37
2018-04-25T09:36:10.313Z,4.13
2018-04-25T09:38:36.712Z,4.30
2018-04-25T09:41:03.165Z,4.40
2018-04-25T09:43:29.653Z,4.07
2018-04-25T09:45:56.043Z,4.40
2018-04-25T09:48:22.495Z,3.87
2018-04-25T09:50:49.116Z,3.90
2018-04-25T09:53:15.613Z,4.03
2018-04-25T09:55:43.308Z,3.70
2018-04-25T09:58:10.574Z,4.27
2018-04-25T10:00:43.056Z,4.80
2018-04-25T10:03:15.684Z,4.87
2018-04-25T10:05:42.082Z,5.30
2018-04-25T10:08:10.370Z,3.93
2018-04-25T10:10:36.761Z,3.60
2018-04-25T10:13:03.477Z,6.67
2018-04-25T10:15:29.970Z,3.77
2018-04-25T10:17:56.472Z,4.20
2018-04-25T10:20:22.882Z,3.73
2018-04-25T10:22:49.475Z,3.50
2018-04-25T10:25:15.860Z,5.07
2018-04-25T10:27:42.246Z,5.47
2018-04-25T10:30:09.459Z,3.93
2018-04-25T10:32:35.859Z,2.93
2018-04-25T10:35:02.262Z,3.00
2018-04-25T10:37:29.023Z,3.30
2018-04-25T10:39:55.861Z,2.97
2018-04-25T10:42:22.983Z,3.40
2018-04-25T10:44:49.477Z,3.60
2018-04-25T10:47:15.860Z,3.47
2018-04-25T10:49:43.055Z,3.70
2018-04-25T10:52:09.489Z,3.37
2018-04-25T10:54:35.886Z,3.90
2018-04-25T10:57:03.212Z,3.97
2018-04-25T10:59:29.667Z,3.67
2018-04-25T11:01:56.828Z,4.00
2018-04-25T11:04:24.028Z,3.83
2018-04-25T11:06:50.436Z,3.90
2018-04-25T11:09:17.016Z,4.10
2018-04-25T11:11:43.700Z,4.10
2018-04-25T11:14:10.080Z,3.53
2018-04-25T11:16:36.476Z,4.03
2018-04-25T11:19:02.927Z,3.90
2018-04-25T11:21:29.319Z,3.80
2018-04-25T11:23:55.740Z,4.23
2018-04-25T11:26:22.187Z,4.23
2018-04-25T11:28:50.374Z,4.47
2018-04-25T11:31:17.478Z,4.40
2018-04-25T11:33:43.939Z,3.80
2018-04-25T11:36:11.044Z,3.93
2018-04-25T11:38:37.565Z,4.50
2018-04-25T11:41:04.280Z,4.60
2018-04-25T11:43:30.781Z,4.50
2018-04-25T11:45:57.354Z,4.40
2018-04-25T11:48:23.862Z,4.20
2018-04-25T11:50:51.131Z,4.20
2018-04-25T11:53:17.560Z,4.30
2018-04-25T11:55:44.749Z,4.07
2018-04-25T11:58:11.371Z,4.30
2018-04-25T12:00:38.035Z,4.13
2018-04-25T12:03:04.421Z,3.83
2018-04-25T12:05:30.858Z,4.10
2018-04-25T12:07:57.275Z,3.83
2018-04-25T12:10:24.712Z,4.00
2018-04-25T12:12:51.210Z,3.67
2018-04-25T12:15:19.044Z,4.03
2018-04-25T12:17:46.278Z,3.63
2018-04-25T12:20:13.405Z,3.90
2018-04-25T12:22:39.786Z,3.83
2018-04-25T12:25:06.215Z,4.00
2018-04-25T12:27:32.712Z,3.60
2018-04-25T12:29:59.232Z,4.10
2018-04-25T12:32:25.722Z,4.03
2018-04-25T12:34:53.160Z,3.97
2018-04-25T12:37:20.289Z,4.20
2018-04-25T12:39:46.662Z,4.40
2018-04-25T12:42:13.133Z,3.73
2018-04-25T12:44:39.512Z,3.97
2018-04-25T12:47:05.945Z,3.27
2018-04-25T12:49:32.399Z,3.40
2018-04-25T12:51:58.791Z,3.70
2018-04-25T12:54:25.989Z,3.60
2018-04-25T12:56:52.513Z,3.83
2018-04-25T12:59:19.831Z,2.97
2018-04-25T13:01:47.106Z,3.10
2018-04-25T13:04:14.461Z,3.70
2018-04-25T13:06:41.004Z,3.17
2018-04-25T13:09:08.431Z,3.43
2018-04-25T13:11:34.806Z,3.40
2018-04-25T13:14:01.225Z,3.10
2018-04-25T13:16:27.708Z,3.40
2018-04-25T13:18:54.053Z,3.20
2018-04-25T13:21:20.615Z,3.50
2018-04-25T13:23:48.511Z,3.83
2018-04-25T13:26:15.046Z,3.97
2018-04-25T13:28:41.420Z,3.17
2018-04-25T13:31:07.812Z,3.63
2018-04-25T13:33:34.191Z,3.73
2018-04-25T13:36:00.540Z,3.50
2018-04-25T13:38:27.758Z,3.80
2018-04-25T13:40:54.439Z,3.30
2018-04-25T13:43:20.832Z,3.90
2018-04-25T13:45:47.228Z,4.10
2018-04-25T13:48:13.629Z,4.00
2018-04-25T13:50:40.042Z,3.20
2018-04-25T13:53:07.703Z,3.70
2018-04-25T13:55:35.483Z,3.93
2018-04-25T13:58:01.978Z,3.40
2018-04-25T14:00:28.372Z,3.50
2018-04-25T14:02:54.829Z,3.50
2018-04-25T14:05:21.246Z,3.77
2018-04-25T14:07:47.970Z,3.87
2018-04-25T14:10:14.876Z,3.23
2018-04-25T14:12:42.037Z,3.50
2018-04-25T14:15:08.544Z,4.27
2018-04-25T14:17:35.273Z,3.20
2018-04-25T14:20:01.777Z,3.10
2018-04-25T14:22:28.605Z,3.30
2018-04-25T14:24:55.044Z,3.47
2018-04-25T14:27:21.507Z,3.10
2018-04-25T14:29:48.031Z,3.30
2018-04-25T14:32:14.418Z,2.83
2018-04-25T14:34:41.642Z,3.00
2018-04-25T14:37:08.156Z,2.50
2018-04-25T14:39:34.609Z,2.50
2018-04-25T14:42:02.724Z,2.43
2018-04-25T14:44:29.281Z,2.77
2018-04-25T14:46:55.803Z,2.70
2018-04-25T14:49:22.183Z,2.40
2018-04-25T14:51:48.725Z,2.40
2018-04-25T14:54:15.269Z,2.90
2018-04-25T14:56:41.947Z,2.90
2018-04-25T14:59:08.698Z,2.30
2018-04-25T15:01:35.160Z,2.27
2018-04-25T15:04:01.542Z,2.20
2018-04-25T15:06:28.212Z,2.20
2018-04-25T15:08:54.852Z,2.20
2018-04-25T15:11:22.072Z,2.20
2018-04-25T15:13:49.221Z,2.50
2018-04-25T15:16:18.247Z,2.40
2018-04-25T15:18:45.094Z,2.07
2018-04-25T15:21:11.701Z,2.60
2018-04-25T15:23:39.689Z,2.53
2018-04-25T15:26:06.779Z,2.50
2018-04-25T15:28:34.034Z,1.90
2018-04-25T15:31:01.355Z,2.30
2018-04-25T15:33:31.251Z,2.30
2018-04-25T15:35:57.922Z,2.23
2018-04-25T15:38:24.354Z,2.33
2018-04-25T15:40:50.821Z,2.53
2018-04-25T15:43:17.989Z,2.60
2018-04-25T15:45:47.757Z,3.67
2018-04-25T15:48:14.948Z,2.20
2018-04-25T15:50:41.695Z,2.80
2018-04-25T15:53:09.565Z,2.70
2018-04-25T15:55:43.172Z,3.90
2018-04-25T15:58:09.702Z,2.23
2018-04-25T16:00:36.115Z,2.80
2018-04-25T16:03:03.404Z,2.57
2018-04-25T16:05:29.777Z,2.43
2018-04-25T16:07:56.185Z,2.50
2018-04-25T16:10:22.638Z,2.83
2018-04-25T16:12:49.178Z,4.10
2018-04-25T16:15:16.322Z,2.50
2018-04-25T16:17:42.737Z,2.70
2018-04-25T16:20:09.183Z,2.47
2018-04-25T16:22:35.621Z,2.90
2018-04-25T16:25:02.021Z,2.70
2018-04-25T16:27:28.664Z,3.73
2018-04-25T16:29:55.043Z,2.60
2018-04-25T16:32:22.336Z,2.80
2018-04-25T16:34:48.817Z,3.10
2018-04-25T16:37:15.313Z,2.57
2018-04-25T16:39:42.038Z,2.63
2018-04-25T16:42:08.523Z,2.60
2018-04-25T16:44:35.053Z,2.43
2018-04-25T16:47:01.589Z,2.70
2018-04-25T16:49:28.329Z,2.97
2018-04-25T16:51:54.742Z,2.40
2018-04-25T16:54:21.143Z,2.93
2018-04-25T16:56:47.705Z,2.50
2018-04-25T16:59:14.357Z,2.90
2018-04-25T17:01:41.133Z,2.83
2018-04-25T17:04:10.923Z,2.80
2018-04-25T17:06:37.547Z,2.33
2018-04-25T17:09:04.396Z,2.40
2018-04-25T17:11:30.877Z,2.50
2018-04-25T17:13:58.341Z,2.60
2018-04-25T17:16:24.850Z,2.60
2018-04-25T17:18:52.085Z,2.67
2018-04-25T17:21:18.477Z,2.30
2018-04-25T17:23:44.896Z,2.47
2018-04-25T17:26:11.390Z,2.30
2018-04-25T17:28:38.838Z,2.40
2018-04-25T17:31:05.985Z,2.20
2018-04-25T17:33:32.602Z,2.60
2018-04-25T17:35:59.034Z,2.67
2018-04-25T17:38:25.537Z,3.17
2018-04-25T17:40:53.264Z,5.17
2018-04-25T17:43:19.730Z,2.57
2018-04-25T17:45:48.693Z,6.10
2018-04-25T17:48:15.647Z,12.23
2018-04-25T17:50:43.059Z,2.87
2018-04-25T17:53:09.492Z,2.30
2018-04-25T17:55:36.135Z,9.10
2018-04-25T17:58:02.793Z,2.40
2018-04-25T18:00:32.176Z,2.10
2018-04-25T18:02:59.019Z,2.25
2018-04-25T18:05:25.421Z,2.87
2018-04-25T18:07:52.002Z,2.17
2018-04-25T18:10:18.985Z,5.07
2018-04-25T18:12:46.330Z,4.25
2018-04-25T18:15:13.585Z,2.30
2018-04-25T18:17:39.966Z,2.78
2018-04-25T18:20:07.390Z,3.47
2018-04-25T18:22:33.780Z,2.73
2018-04-25T18:25:00.492Z,1.65
2018-04-25T18:27:27.307Z,2.33
2018-04-25T18:29:53.729Z,2.28
2018-04-25T18:32:20.441Z,2.53
2018-04-25T18:34:47.404Z,2.10
2018-04-25T18:37:14.941Z,2.03
2018-04-25T18:39:41.368Z,3.47
2018-04-25T18:42:07.873Z,2.00
2018-04-25T18:44:34.445Z,2.13
2018-04-25T18:47:01.086Z,2.50
2018-04-25T18:49:27.841Z,2.10
2018-04-25T18:51:54.200Z,2.40
2018-04-25T18:54:20.693Z,2.10
2018-04-25T18:56:48.196Z,2.35
2018-04-25T18:59:14.685Z,9.25
2018-04-25T19:01:41.370Z,2.70
2018-04-25T19:04:08.136Z,1.87
2018-04-25T19:06:35.033Z,2.17
2018-04-25T19:09:02.591Z,2.40
2018-04-25T19:11:29.244Z,2.20
2018-04-25T19:13:55.701Z,2.60
2018-04-25T19:16:22.282Z,2.22
2018-04-25T19:18:50.018Z,2.20
2018-04-25T19:21:17.491Z,2.40
2018-04-25T19:23:44.318Z,2.10
2018-04-25T19:26:10.756Z,2.35
2018-04-25T19:28:37.582Z,2.40
2018-04-25T19:31:04.268Z,2.05
2018-04-25T19:33:30.795Z,2.12
2018-04-25T19:35:57.233Z,2.30
2018-04-25T19:38:24.627Z,2.08
2018-04-25T19:40:51.195Z,2.87
2018-04-25T19:43:17.611Z,2.70
2018-04-25T19:45:43.988Z,2.20
2018-04-25T19:48:11.141Z,1.65
2018-04-25T19:50:38.344Z,2.00
2018-04-25T19:53:06.219Z,2.00
2018-04-25T19:55:34.189Z,2.28
2018-04-25T19:58:00.646Z,1.70
2018-04-25T20:00:27.845Z,1.75
2018-04-25T20:02:54.230Z,1.52
2018-04-25T20:05:20.655Z,1.90
2018-04-25T20:07:48.091Z,1.48
2018-04-25T20:10:14.495Z,1.47
2018-04-25T20:12:41.217Z,1.80
2018-04-25T20:15:07.663Z,1.48
2018-04-25T20:17:34.322Z,1.70
2018-04-25T20:20:00.684Z,1.27
2018-04-25T20:22:27.067Z,1.62
2018-04-25T20:24:53.454Z,11.30
2018-04-25T20:27:20.463Z,1.60
2018-04-25T20:29:46.941Z,1.33
2018-04-25T20:32:13.399Z,1.58
2018-04-25T20:34:39.861Z,1.70
2018-04-25T20:37:06.247Z,1.50
2018-04-25T20:39:33.507Z,1.52
2018-04-25T20:42:00.782Z,1.77
2018-04-25T20:44:28.212Z,1.40
2018-04-25T20:46:55.369Z,1.50
2018-04-25T20:49:22.748Z,1.58
2018-04-25T20:51:49.481Z,1.50
2018-04-25T20:54:15.996Z,1.40
2018-04-25T20:56:42.828Z,1.70
2018-04-25T20:59:09.949Z,1.60
2018-04-25T21:01:36.368Z,1.45
2018-04-25T21:04:02.853Z,1.50
2018-04-25T21:06:29.989Z,1.70
2018-04-25T21:08:57.462Z,1.73
2018-04-25T21:11:24.665Z,1.80
2018-04-25T21:13:51.566Z,1.83
2018-04-25T21:16:18.753Z,1.70
2018-04-25T21:18:45.205Z,1.70
2018-04-25T21:21:11.594Z,1.80
2018-04-25T21:23:37.981Z,1.87
2018-04-25T21:26:06.137Z,2.00
2018-04-25T21:28:32.653Z,2.10
2018-04-25T21:30:59.303Z,2.10
2018-04-25T21:33:25.785Z,2.20
2018-04-25T21:35:54.921Z,2.10
2018-04-25T21:38:22.523Z,2.08
2018-04-25T21:40:49.281Z,2.00
2018-04-25T21:43:16.639Z,2.20
2018-04-25T21:45:43.801Z,2.05
2018-04-25T21:48:10.525Z,1.98
2018-04-25T21:50:37.915Z,2.08
2018-04-25T21:53:04.455Z,1.70
2018-04-25T21:55:30.909Z,1.80
2018-04-25T21:57:57.365Z,1.90
2018-04-25T22:00:24.741Z,1.90
2018-04-25T22:02:51.965Z,1.70
2018-04-25T22:05:18.373Z,1.90
2018-04-25T22:07:44.808Z,1.85
2018-04-25T22:10:11.174Z,1.77
2018-04-25T22:12:38.337Z,1.83
2018-04-25T22:15:05.526Z,1.80
2018-04-25T22:17:31.928Z,2.00
2018-04-25T22:19:59.016Z,2.20
2018-04-25T22:22:25.409Z,1.90
2018-04-25T22:24:51.841Z,2.17
2018-04-25T22:27:18.966Z,2.50
2018-04-25T22:29:46.077Z,2.60
2018-04-25T22:32:12.481Z,2.20
2018-04-25T22:34:38.847Z,2.80
2018-04-25T22:37:05.268Z,2.95
2018-04-25T22:39:31.672Z,2.58
2018-04-25T22:41:58.053Z,2.90
2018-04-25T22:44:24.425Z,2.90
2018-04-25T22:46:51.584Z,2.75
2018-04-25T22:49:18.036Z,2.72
2018-04-25T22:51:45.138Z,2.60
2018-04-25T22:54:11.526Z,2.60
2018-04-25T22:56:37.921Z,2.72
2018-04-25T22:59:05.028Z,2.50
2018-04-25T23:01:31.499Z,2.70
2018-04-25T23:03:57.880Z,3.00
2018-04-25T23:06:24.290Z,3.17
2018-04-25T23:08:50.702Z,2.97
2018-04-25T23:11:17.102Z,3.28
2018-04-25T23:13:44.284Z,2.97
2018-04-25T23:16:11.747Z,2.60
2018-04-25T23:18:38.243Z,2.97
2018-04-25T23:21:04.913Z,2.70
2018-04-25T23:23:32.370Z,2.80
2018-04-25T23:25:59.572Z,2.83
2018-04-25T23:28:26.029Z,2.85
2018-04-25T23:30:53.246Z,3.08
2018-04-25T23:33:19.627Z,2.77
2018-04-25T23:35:46.739Z,3.58
2018-04-25T23:38:13.214Z,3.30
2018-04-25T23:40:39.644Z,2.80
2018-04-25T23:43:08.066Z,2.92
2018-04-25T23:45:34.469Z,3.17
2018-04-25T23:48:01.610Z,2.75
2018-04-25T23:50:29.939Z,2.92
2018-04-25T23:52:58.789Z,3.03
2018-04-25T23:55:35.156Z,2.92
2018-04-25T23:58:03.370Z,3.00
